sensor_id;sensor_type;location;lat;lon;timestamp;P1;durP1;ratioP1;P2;durP2;ratioP2
15673;SDS011;7937;48.090;16.212;2023-05-07T00:02:32;1.93;;;1.83;;
15673;SDS011;7937;48.090;16.212;2023-05-07T00:05:34;3.43;;;1.60;;
15673;SDS011;7937;48.090;16.212;2023-05-07T00:08:36;8.50;;;2.17;;
15673;SDS011;7937;48.090;16.212;2023-05-07T00:11:39;2.47;;;1.60;;
15673;SDS011;7937;48.090;16.212;2023-05-07T00:14:41;2.73;;;1.70;;
15673;SDS011;7937;48.090;16.212;2023-05-07T00:17:43;2.97;;;1.63;;
15673;SDS011;7937;48.090;16.212;2023-05-07T00:20:45;2.97;;;1.60;;
15673;SDS011;7937;48.090;16.212;2023-05-07T00:23:47;3.33;;;1.50;;
15673;SDS011;7937;48.090;16.212;2023-05-07T00:26:49;3.07;;;1.30;;
15673;SDS011;7937;48.090;16.212;2023-05-07T00:29:52;3.47;;;1.60;;
15673;SDS011;7937;48.090;16.212;2023-05-07T00:32:54;2.53;;;1.50;;
15673;SDS011;7937;48.090;16.212;2023-05-07T00:35:56;2.10;;;1.57;;
15673;SDS011;7937;48.090;16.212;2023-05-07T00:39:01;2.03;;;1.73;;
15673;SDS011;7937;48.090;16.212;2023-05-07T00:42:05;1.60;;;1.40;;
15673;SDS011;7937;48.090;16.212;2023-05-07T00:45:07;2.13;;;1.67;;
15673;SDS011;7937;48.090;16.212;2023-05-07T00:48:09;3.00;;;1.60;;
15673;SDS011;7937;48.090;16.212;2023-05-07T00:51:11;3.13;;;1.60;;
15673;SDS011;7937;48.090;16.212;2023-05-07T00:54:14;2.13;;;1.60;;
15673;SDS011;7937;48.090;16.212;2023-05-07T00:57:16;2.53;;;1.77;;
15673;SDS011;7937;48.090;16.212;2023-05-07T01:00:19;2.77;;;1.50;;
15673;SDS011;7937;48.090;16.212;2023-05-07T01:03:21;4.37;;;1.83;;
15673;SDS011;7937;48.090;16.212;2023-05-07T01:06:24;2.90;;;1.67;;
15673;SDS011;7937;48.090;16.212;2023-05-07T01:09:29;1.63;;;1.30;;
15673;SDS011;7937;48.090;16.212;2023-05-07T01:12:31;1.90;;;1.57;;
15673;SDS011;7937;48.090;16.212;2023-05-07T01:15:34;2.10;;;1.60;;
15673;SDS011;7937;48.090;16.212;2023-05-07T01:18:37;3.93;;;1.80;;
15673;SDS011;7937;48.090;16.212;2023-05-07T01:21:39;1.57;;;1.37;;
15673;SDS011;7937;48.090;16.212;2023-05-07T01:24:49;3.07;;;1.60;;
15673;SDS011;7937;48.090;16.212;2023-05-07T01:27:51;1.60;;;1.50;;
15673;SDS011;7937;48.090;16.212;2023-05-07T01:31:00;1.50;;;1.40;;
15673;SDS011;7937;48.090;16.212;2023-05-07T01:34:05;3.57;;;1.20;;
15673;SDS011;7937;48.090;16.212;2023-05-07T01:37:10;3.23;;;1.27;;
15673;SDS011;7937;48.090;16.212;2023-05-07T01:40:12;1.40;;;1.30;;
15673;SDS011;7937;48.090;16.212;2023-05-07T01:43:15;1.17;;;1.10;;
15673;SDS011;7937;48.090;16.212;2023-05-07T01:46:17;1.60;;;1.50;;
15673;SDS011;7937;48.090;16.212;2023-05-07T01:49:20;1.40;;;1.23;;
15673;SDS011;7937;48.090;16.212;2023-05-07T01:52:22;1.37;;;1.27;;
15673;SDS011;7937;48.090;16.212;2023-05-07T01:55:24;1.80;;;1.40;;
15673;SDS011;7937;48.090;16.212;2023-05-07T01:58:26;1.90;;;1.60;;
15673;SDS011;7937;48.090;16.212;2023-05-07T02:01:29;1.50;;;1.40;;
15673;SDS011;7937;48.090;16.212;2023-05-07T02:04:31;1.60;;;1.50;;
15673;SDS011;7937;48.090;16.212;2023-05-07T02:07:33;1.60;;;1.43;;
15673;SDS011;7937;48.090;16.212;2023-05-07T02:10:36;2.70;;;1.70;;
15673;SDS011;7937;48.090;16.212;2023-05-07T02:13:40;1.93;;;1.30;;
15673;SDS011;7937;48.090;16.212;2023-05-07T02:16:43;3.77;;;1.60;;
15673;SDS011;7937;48.090;16.212;2023-05-07T02:19:47;2.60;;;1.37;;
15673;SDS011;7937;48.090;16.212;2023-05-07T02:22:49;2.17;;;1.40;;
15673;SDS011;7937;48.090;16.212;2023-05-07T02:25:51;1.40;;;1.30;;
15673;SDS011;7937;48.090;16.212;2023-05-07T02:28:53;2.90;;;1.60;;
15673;SDS011;7937;48.090;16.212;2023-05-07T02:31:55;2.10;;;1.33;;
15673;SDS011;7937;48.090;16.212;2023-05-07T02:34:58;1.60;;;1.50;;
15673;SDS011;7937;48.090;16.212;2023-05-07T02:38:00;1.87;;;1.10;;
15673;SDS011;7937;48.090;16.212;2023-05-07T02:41:02;2.03;;;1.77;;
15673;SDS011;7937;48.090;16.212;2023-05-07T02:44:04;3.00;;;2.07;;
15673;SDS011;7937;48.090;16.212;2023-05-07T02:47:07;2.00;;;1.50;;
15673;SDS011;7937;48.090;16.212;2023-05-07T02:50:11;2.33;;;1.30;;
15673;SDS011;7937;48.090;16.212;2023-05-07T02:53:14;1.67;;;1.57;;
15673;SDS011;7937;48.090;16.212;2023-05-07T02:56:16;1.50;;;1.40;;
15673;SDS011;7937;48.090;16.212;2023-05-07T02:59:18;2.53;;;1.83;;
15673;SDS011;7937;48.090;16.212;2023-05-07T03:02:20;4.00;;;2.20;;
15673;SDS011;7937;48.090;16.212;2023-05-07T03:05:22;1.70;;;1.60;;
15673;SDS011;7937;48.090;16.212;2023-05-07T03:08:24;2.97;;;2.00;;
15673;SDS011;7937;48.090;16.212;2023-05-07T03:11:26;3.63;;;1.70;;
15673;SDS011;7937;48.090;16.212;2023-05-07T03:14:28;1.93;;;1.83;;
15673;SDS011;7937;48.090;16.212;2023-05-07T03:17:30;1.80;;;1.70;;
15673;SDS011;7937;48.090;16.212;2023-05-07T03:20:32;3.43;;;1.93;;
15673;SDS011;7937;48.090;16.212;2023-05-07T03:23:35;1.70;;;1.60;;
15673;SDS011;7937;48.090;16.212;2023-05-07T03:26:37;3.20;;;2.00;;
15673;SDS011;7937;48.090;16.212;2023-05-07T03:29:39;3.37;;;2.43;;
15673;SDS011;7937;48.090;16.212;2023-05-07T03:32:41;3.90;;;2.17;;
15673;SDS011;7937;48.090;16.212;2023-05-07T03:35:45;1.97;;;1.80;;
15673;SDS011;7937;48.090;16.212;2023-05-07T03:38:53;2.87;;;1.90;;
15673;SDS011;7937;48.090;16.212;2023-05-07T03:41:58;2.27;;;1.87;;
15673;SDS011;7937;48.090;16.212;2023-05-07T03:45:00;3.27;;;2.13;;
15673;SDS011;7937;48.090;16.212;2023-05-07T03:48:03;3.10;;;2.40;;
15673;SDS011;7937;48.090;16.212;2023-05-07T03:51:06;3.73;;;2.10;;
15673;SDS011;7937;48.090;16.212;2023-05-07T03:54:08;5.97;;;2.67;;
15673;SDS011;7937;48.090;16.212;2023-05-07T03:57:12;3.93;;;2.60;;
15673;SDS011;7937;48.090;16.212;2023-05-07T04:00:14;4.13;;;1.90;;
15673;SDS011;7937;48.090;16.212;2023-05-07T04:03:22;4.90;;;2.67;;
15673;SDS011;7937;48.090;16.212;2023-05-07T04:06:25;5.23;;;3.27;;
15673;SDS011;7937;48.090;16.212;2023-05-07T04:09:27;3.13;;;2.83;;
15673;SDS011;7937;48.090;16.212;2023-05-07T04:12:30;3.67;;;3.20;;
15673;SDS011;7937;48.090;16.212;2023-05-07T04:15:33;4.53;;;3.57;;
15673;SDS011;7937;48.090;16.212;2023-05-07T04:18:37;6.70;;;3.73;;
15673;SDS011;7937;48.090;16.212;2023-05-07T04:21:39;5.83;;;4.23;;
15673;SDS011;7937;48.090;16.212;2023-05-07T04:24:42;7.43;;;5.03;;
15673;SDS011;7937;48.090;16.212;2023-05-07T04:27:47;5.87;;;4.67;;
15673;SDS011;7937;48.090;16.212;2023-05-07T04:30:51;6.33;;;3.80;;
15673;SDS011;7937;48.090;16.212;2023-05-07T04:33:55;3.30;;;3.03;;
15673;SDS011;7937;48.090;16.212;2023-05-07T04:36:58;4.73;;;3.93;;
15673;SDS011;7937;48.090;16.212;2023-05-07T04:40:01;5.90;;;4.80;;
15673;SDS011;7937;48.090;16.212;2023-05-07T04:43:04;7.70;;;6.53;;
15673;SDS011;7937;48.090;16.212;2023-05-07T04:46:13;6.03;;;5.37;;
15673;SDS011;7937;48.090;16.212;2023-05-07T04:49:16;5.30;;;4.47;;
15673;SDS011;7937;48.090;16.212;2023-05-07T04:52:19;5.90;;;5.00;;
15673;SDS011;7937;48.090;16.212;2023-05-07T04:55:21;5.83;;;4.73;;
15673;SDS011;7937;48.090;16.212;2023-05-07T04:58:23;4.57;;;4.13;;
15673;SDS011;7937;48.090;16.212;2023-05-07T05:01:26;5.10;;;4.47;;
15673;SDS011;7937;48.090;16.212;2023-05-07T05:04:29;6.10;;;4.53;;
15673;SDS011;7937;48.090;16.212;2023-05-07T05:07:32;6.03;;;5.33;;
15673;SDS011;7937;48.090;16.212;2023-05-07T05:10:34;6.53;;;5.87;;
15673;SDS011;7937;48.090;16.212;2023-05-07T05:13:36;9.00;;;6.07;;
15673;SDS011;7937;48.090;16.212;2023-05-07T05:16:45;7.57;;;5.73;;
15673;SDS011;7937;48.090;16.212;2023-05-07T05:19:48;8.83;;;6.20;;
15673;SDS011;7937;48.090;16.212;2023-05-07T05:22:51;13.43;;;8.90;;
15673;SDS011;7937;48.090;16.212;2023-05-07T05:25:56;14.77;;;10.97;;
15673;SDS011;7937;48.090;16.212;2023-05-07T05:29:02;24.30;;;18.10;;
15673;SDS011;7937;48.090;16.212;2023-05-07T05:32:06;33.53;;;21.70;;
15673;SDS011;7937;48.090;16.212;2023-05-07T05:35:08;33.73;;;23.70;;
15673;SDS011;7937;48.090;16.212;2023-05-07T05:38:10;33.67;;;25.13;;
15673;SDS011;7937;48.090;16.212;2023-05-07T05:41:14;33.33;;;24.53;;
15673;SDS011;7937;48.090;16.212;2023-05-07T05:44:16;33.57;;;26.03;;
15673;SDS011;7937;48.090;16.212;2023-05-07T05:47:18;34.03;;;27.30;;
15673;SDS011;7937;48.090;16.212;2023-05-07T05:50:20;34.93;;;27.10;;
15673;SDS011;7937;48.090;16.212;2023-05-07T05:53:23;41.47;;;26.40;;
15673;SDS011;7937;48.090;16.212;2023-05-07T05:56:25;30.03;;;24.57;;
15673;SDS011;7937;48.090;16.212;2023-05-07T05:59:27;34.20;;;27.30;;
15673;SDS011;7937;48.090;16.212;2023-05-07T06:02:30;33.87;;;25.43;;
15673;SDS011;7937;48.090;16.212;2023-05-07T06:05:32;31.63;;;26.43;;
15673;SDS011;7937;48.090;16.212;2023-05-07T06:08:35;28.60;;;23.70;;
15673;SDS011;7937;48.090;16.212;2023-05-07T06:11:38;31.17;;;24.00;;
15673;SDS011;7937;48.090;16.212;2023-05-07T06:14:44;31.23;;;25.03;;
15673;SDS011;7937;48.090;16.212;2023-05-07T06:17:47;30.40;;;25.93;;
15673;SDS011;7937;48.090;16.212;2023-05-07T06:20:49;27.23;;;24.07;;
15673;SDS011;7937;48.090;16.212;2023-05-07T06:23:58;27.53;;;23.43;;
15673;SDS011;7937;48.090;16.212;2023-05-07T06:27:00;28.10;;;23.73;;
15673;SDS011;7937;48.090;16.212;2023-05-07T06:30:04;27.83;;;22.57;;
15673;SDS011;7937;48.090;16.212;2023-05-07T06:33:06;29.60;;;25.43;;
15673;SDS011;7937;48.090;16.212;2023-05-07T06:36:09;29.57;;;23.30;;
15673;SDS011;7937;48.090;16.212;2023-05-07T06:39:13;31.30;;;24.50;;
15673;SDS011;7937;48.090;16.212;2023-05-07T06:42:15;26.43;;;22.97;;
15673;SDS011;7937;48.090;16.212;2023-05-07T06:45:20;25.37;;;22.40;;
15673;SDS011;7937;48.090;16.212;2023-05-07T06:48:22;25.97;;;22.17;;
15673;SDS011;7937;48.090;16.212;2023-05-07T06:51:32;29.80;;;24.57;;
15673;SDS011;7937;48.090;16.212;2023-05-07T06:54:37;30.17;;;23.97;;
15673;SDS011;7937;48.090;16.212;2023-05-07T06:57:39;30.40;;;23.27;;
15673;SDS011;7937;48.090;16.212;2023-05-07T07:00:42;28.00;;;23.80;;
15673;SDS011;7937;48.090;16.212;2023-05-07T07:03:44;24.30;;;21.43;;
15673;SDS011;7937;48.090;16.212;2023-05-07T07:06:46;30.40;;;24.53;;
15673;SDS011;7937;48.090;16.212;2023-05-07T07:09:49;30.13;;;22.23;;
15673;SDS011;7937;48.090;16.212;2023-05-07T07:12:52;26.67;;;22.90;;
15673;SDS011;7937;48.090;16.212;2023-05-07T07:15:56;28.53;;;23.37;;
15673;SDS011;7937;48.090;16.212;2023-05-07T07:18:58;28.90;;;24.03;;
15673;SDS011;7937;48.090;16.212;2023-05-07T07:22:01;27.90;;;22.90;;
15673;SDS011;7937;48.090;16.212;2023-05-07T07:25:04;29.97;;;22.63;;
15673;SDS011;7937;48.090;16.212;2023-05-07T07:28:06;26.83;;;22.30;;
15673;SDS011;7937;48.090;16.212;2023-05-07T07:31:12;25.93;;;23.00;;
15673;SDS011;7937;48.090;16.212;2023-05-07T07:34:15;26.33;;;22.60;;
15673;SDS011;7937;48.090;16.212;2023-05-07T07:37:17;24.97;;;21.47;;
15673;SDS011;7937;48.090;16.212;2023-05-07T07:40:19;22.03;;;19.70;;
15673;SDS011;7937;48.090;16.212;2023-05-07T07:43:22;23.17;;;20.70;;
15673;SDS011;7937;48.090;16.212;2023-05-07T07:46:24;21.67;;;18.50;;
15673;SDS011;7937;48.090;16.212;2023-05-07T07:49:28;22.70;;;19.37;;
15673;SDS011;7937;48.090;16.212;2023-05-07T07:52:33;25.87;;;20.40;;
15673;SDS011;7937;48.090;16.212;2023-05-07T07:55:39;20.50;;;18.20;;
15673;SDS011;7937;48.090;16.212;2023-05-07T07:58:43;22.23;;;19.87;;
15673;SDS011;7937;48.090;16.212;2023-05-07T08:01:46;21.67;;;19.37;;
15673;SDS011;7937;48.090;16.212;2023-05-07T08:04:53;20.83;;;18.63;;
15673;SDS011;7937;48.090;16.212;2023-05-07T08:07:55;22.40;;;19.27;;
15673;SDS011;7937;48.090;16.212;2023-05-07T08:11:02;20.60;;;17.70;;
15673;SDS011;7937;48.090;16.212;2023-05-07T08:14:06;20.20;;;17.33;;
15673;SDS011;7937;48.090;16.212;2023-05-07T08:17:09;20.13;;;17.90;;
15673;SDS011;7937;48.090;16.212;2023-05-07T08:20:12;19.30;;;17.20;;
15673;SDS011;7937;48.090;16.212;2023-05-07T08:23:15;21.20;;;17.67;;
15673;SDS011;7937;48.090;16.212;2023-05-07T08:26:19;19.63;;;16.37;;
15673;SDS011;7937;48.090;16.212;2023-05-07T08:29:22;18.67;;;16.33;;
15673;SDS011;7937;48.090;16.212;2023-05-07T08:32:24;21.60;;;17.60;;
15673;SDS011;7937;48.090;16.212;2023-05-07T08:35:27;20.23;;;17.20;;
15673;SDS011;7937;48.090;16.212;2023-05-07T08:38:31;17.67;;;15.77;;
15673;SDS011;7937;48.090;16.212;2023-05-07T08:41:34;17.60;;;15.70;;
15673;SDS011;7937;48.090;16.212;2023-05-07T08:44:36;17.13;;;15.33;;
15673;SDS011;7937;48.090;16.212;2023-05-07T08:47:46;17.37;;;15.47;;
15673;SDS011;7937;48.090;16.212;2023-05-07T08:50:53;20.23;;;16.13;;
15673;SDS011;7937;48.090;16.212;2023-05-07T08:53:55;19.63;;;16.37;;
15673;SDS011;7937;48.090;16.212;2023-05-07T08:57:03;16.43;;;14.73;;
15673;SDS011;7937;48.090;16.212;2023-05-07T09:00:07;16.80;;;14.33;;
15673;SDS011;7937;48.090;16.212;2023-05-07T09:03:12;17.03;;;15.23;;
15673;SDS011;7937;48.090;16.212;2023-05-07T09:06:18;18.03;;;14.83;;
15673;SDS011;7937;48.090;16.212;2023-05-07T09:09:21;18.20;;;14.93;;
15673;SDS011;7937;48.090;16.212;2023-05-07T09:12:26;17.00;;;14.67;;
15673;SDS011;7937;48.090;16.212;2023-05-07T09:15:29;16.23;;;14.00;;
15673;SDS011;7937;48.090;16.212;2023-05-07T09:18:31;18.00;;;13.90;;
15673;SDS011;7937;48.090;16.212;2023-05-07T09:21:33;18.23;;;13.93;;
15673;SDS011;7937;48.090;16.212;2023-05-07T09:24:40;17.03;;;13.57;;
15673;SDS011;7937;48.090;16.212;2023-05-07T09:27:45;14.47;;;11.80;;
15673;SDS011;7937;48.090;16.212;2023-05-07T09:30:47;14.73;;;12.57;;
15673;SDS011;7937;48.090;16.212;2023-05-07T09:33:50;15.83;;;12.20;;
15673;SDS011;7937;48.090;16.212;2023-05-07T09:36:53;13.57;;;11.73;;
15673;SDS011;7937;48.090;16.212;2023-05-07T09:39:55;13.80;;;11.50;;
15673;SDS011;7937;48.090;16.212;2023-05-07T09:43:08;12.67;;;10.87;;
15673;SDS011;7937;48.090;16.212;2023-05-07T09:46:18;13.07;;;11.03;;
15673;SDS011;7937;48.090;16.212;2023-05-07T09:49:28;13.30;;;10.83;;
15673;SDS011;7937;48.090;16.212;2023-05-07T09:52:37;12.07;;;10.70;;
15673;SDS011;7937;48.090;16.212;2023-05-07T09:55:43;11.67;;;10.43;;
15673;SDS011;7937;48.090;16.212;2023-05-07T09:58:45;10.53;;;9.43;;
15673;SDS011;7937;48.090;16.212;2023-05-07T10:01:48;11.30;;;10.10;;
15673;SDS011;7937;48.090;16.212;2023-05-07T10:04:54;12.30;;;11.00;;
15673;SDS011;7937;48.090;16.212;2023-05-07T10:08:01;10.67;;;9.50;;
15673;SDS011;7937;48.090;16.212;2023-05-07T10:11:08;12.00;;;10.07;;
15673;SDS011;7937;48.090;16.212;2023-05-07T10:14:11;11.63;;;10.23;;
15673;SDS011;7937;48.090;16.212;2023-05-07T10:17:16;10.90;;;9.80;;
15673;SDS011;7937;48.090;16.212;2023-05-07T10:20:20;10.60;;;8.77;;
15673;SDS011;7937;48.090;16.212;2023-05-07T10:23:23;9.60;;;8.60;;
15673;SDS011;7937;48.090;16.212;2023-05-07T10:26:30;11.17;;;9.57;;
15673;SDS011;7937;48.090;16.212;2023-05-07T10:29:37;9.13;;;8.23;;
15673;SDS011;7937;48.090;16.212;2023-05-07T10:32:48;10.27;;;8.97;;
15673;SDS011;7937;48.090;16.212;2023-05-07T10:36:03;10.53;;;8.50;;
15673;SDS011;7937;48.090;16.212;2023-05-07T10:39:08;12.33;;;8.63;;
15673;SDS011;7937;48.090;16.212;2023-05-07T10:42:13;10.23;;;7.87;;
15673;SDS011;7937;48.090;16.212;2023-05-07T10:45:22;9.50;;;8.43;;
15673;SDS011;7937;48.090;16.212;2023-05-07T10:48:29;8.93;;;8.10;;
15673;SDS011;7937;48.090;16.212;2023-05-07T10:51:37;8.87;;;7.67;;
15673;SDS011;7937;48.090;16.212;2023-05-07T10:58:44;11.00;;;8.17;;
15673;SDS011;7937;48.090;16.212;2023-05-07T11:02:03;11.23;;;10.03;;
15673;SDS011;7937;48.090;16.212;2023-05-07T11:05:22;10.20;;;9.10;;
15673;SDS011;7937;48.090;16.212;2023-05-07T11:08:52;10.13;;;9.13;;
15673;SDS011;7937;48.090;16.212;2023-05-07T11:12:01;10.10;;;8.77;;
15673;SDS011;7937;48.090;16.212;2023-05-07T11:15:14;8.93;;;8.03;;
15673;SDS011;7937;48.090;16.212;2023-05-07T11:18:20;10.00;;;8.13;;
15673;SDS011;7937;48.090;16.212;2023-05-07T11:21:31;8.83;;;7.93;;
15673;SDS011;7937;48.090;16.212;2023-05-07T11:24:40;9.20;;;8.20;;
15673;SDS011;7937;48.090;16.212;2023-05-07T11:27:47;8.80;;;7.83;;
15673;SDS011;7937;48.090;16.212;2023-05-07T11:30:49;7.50;;;6.70;;
15673;SDS011;7937;48.090;16.212;2023-05-07T11:33:54;9.03;;;7.97;;
15673;SDS011;7937;48.090;16.212;2023-05-07T11:36:56;9.60;;;7.20;;
15673;SDS011;7937;48.090;16.212;2023-05-07T11:40:14;7.83;;;7.03;;
15673;SDS011;7937;48.090;16.212;2023-05-07T11:43:16;8.00;;;7.23;;
15673;SDS011;7937;48.090;16.212;2023-05-07T11:46:19;9.10;;;7.97;;
15673;SDS011;7937;48.090;16.212;2023-05-07T11:49:24;7.60;;;6.80;;
15673;SDS011;7937;48.090;16.212;2023-05-07T11:52:28;10.33;;;6.33;;
15673;SDS011;7937;48.090;16.212;2023-05-07T11:55:30;7.63;;;6.10;;
15673;SDS011;7937;48.090;16.212;2023-05-07T11:58:32;6.93;;;6.13;;
15673;SDS011;7937;48.090;16.212;2023-05-07T12:01:35;7.27;;;6.57;;
15673;SDS011;7937;48.090;16.212;2023-05-07T12:04:38;8.67;;;7.40;;
15673;SDS011;7937;48.090;16.212;2023-05-07T12:07:44;11.40;;;7.33;;
15673;SDS011;7937;48.090;16.212;2023-05-07T12:11:02;9.10;;;7.90;;
15673;SDS011;7937;48.090;16.212;2023-05-07T12:14:48;9.47;;;8.07;;
15673;SDS011;7937;48.090;16.212;2023-05-07T12:17:56;9.57;;;7.30;;
15673;SDS011;7937;48.090;16.212;2023-05-07T12:21:40;9.07;;;8.17;;
15673;SDS011;7937;48.090;16.212;2023-05-07T12:24:46;9.20;;;8.10;;
15673;SDS011;7937;48.090;16.212;2023-05-07T12:27:53;8.70;;;7.80;;
15673;SDS011;7937;48.090;16.212;2023-05-07T12:30:55;8.63;;;7.73;;
15673;SDS011;7937;48.090;16.212;2023-05-07T12:33:58;8.40;;;7.60;;
15673;SDS011;7937;48.090;16.212;2023-05-07T12:37:03;7.23;;;6.53;;
15673;SDS011;7937;48.090;16.212;2023-05-07T12:48:38;10.10;;;7.13;;
15673;SDS011;7937;48.090;16.212;2023-05-07T12:51:46;9.97;;;6.83;;
15673;SDS011;7937;48.090;16.212;2023-05-07T12:54:50;9.13;;;6.50;;
15673;SDS011;7937;48.090;16.212;2023-05-07T12:57:52;8.60;;;6.90;;
15673;SDS011;7937;48.090;16.212;2023-05-07T13:04:11;7.07;;;6.23;;
15673;SDS011;7937;48.090;16.212;2023-05-07T13:07:13;7.57;;;6.67;;
15673;SDS011;7937;48.090;16.212;2023-05-07T13:10:16;7.77;;;6.30;;
15673;SDS011;7937;48.090;16.212;2023-05-07T13:13:19;7.43;;;6.37;;
15673;SDS011;7937;48.090;16.212;2023-05-07T13:16:22;7.37;;;6.63;;
15673;SDS011;7937;48.090;16.212;2023-05-07T13:19:24;8.63;;;7.17;;
15673;SDS011;7937;48.090;16.212;2023-05-07T13:22:26;7.50;;;6.80;;
15673;SDS011;7937;48.090;16.212;2023-05-07T13:25:28;7.23;;;6.47;;
15673;SDS011;7937;48.090;16.212;2023-05-07T13:28:30;8.00;;;6.10;;
15673;SDS011;7937;48.090;16.212;2023-05-07T13:31:33;8.07;;;7.27;;
15673;SDS011;7937;48.090;16.212;2023-05-07T13:34:35;7.60;;;6.77;;
15673;SDS011;7937;48.090;16.212;2023-05-07T13:37:38;9.43;;;7.00;;
15673;SDS011;7937;48.090;16.212;2023-05-07T13:40:40;9.80;;;7.60;;
15673;SDS011;7937;48.090;16.212;2023-05-07T13:43:43;8.00;;;7.20;;
15673;SDS011;7937;48.090;16.212;2023-05-07T13:46:45;6.30;;;5.67;;
15673;SDS011;7937;48.090;16.212;2023-05-07T13:49:47;7.97;;;5.97;;
15673;SDS011;7937;48.090;16.212;2023-05-07T13:52:51;8.07;;;7.07;;
15673;SDS011;7937;48.090;16.212;2023-05-07T13:55:53;5.90;;;5.30;;
15673;SDS011;7937;48.090;16.212;2023-05-07T13:58:55;8.00;;;5.57;;
15673;SDS011;7937;48.090;16.212;2023-05-07T14:02:01;9.33;;;5.83;;
15673;SDS011;7937;48.090;16.212;2023-05-07T14:05:03;8.83;;;6.60;;
15673;SDS011;7937;48.090;16.212;2023-05-07T14:08:06;6.40;;;5.73;;
15673;SDS011;7937;48.090;16.212;2023-05-07T14:11:09;7.23;;;5.83;;
15673;SDS011;7937;48.090;16.212;2023-05-07T14:14:11;7.10;;;6.10;;
15673;SDS011;7937;48.090;16.212;2023-05-07T14:17:13;6.40;;;5.00;;
15673;SDS011;7937;48.090;16.212;2023-05-07T14:20:15;5.47;;;4.97;;
15673;SDS011;7937;48.090;16.212;2023-05-07T14:23:18;6.00;;;4.87;;
15673;SDS011;7937;48.090;16.212;2023-05-07T14:26:21;5.30;;;4.80;;
15673;SDS011;7937;48.090;16.212;2023-05-07T14:29:25;5.20;;;4.70;;
15673;SDS011;7937;48.090;16.212;2023-05-07T14:32:27;4.80;;;4.33;;
15673;SDS011;7937;48.090;16.212;2023-05-07T14:35:29;6.53;;;5.93;;
15673;SDS011;7937;48.090;16.212;2023-05-07T14:38:31;5.70;;;4.63;;
15673;SDS011;7937;48.090;16.212;2023-05-07T14:41:34;6.70;;;4.80;;
15673;SDS011;7937;48.090;16.212;2023-05-07T14:44:37;6.90;;;4.33;;
15673;SDS011;7937;48.090;16.212;2023-05-07T14:47:39;8.40;;;5.93;;
15673;SDS011;7937;48.090;16.212;2023-05-07T14:50:41;9.17;;;5.43;;
15673;SDS011;7937;48.090;16.212;2023-05-07T14:53:44;5.20;;;4.70;;
15673;SDS011;7937;48.090;16.212;2023-05-07T14:56:46;5.77;;;4.83;;
15673;SDS011;7937;48.090;16.212;2023-05-07T14:59:50;6.53;;;4.63;;
15673;SDS011;7937;48.090;16.212;2023-05-07T15:02:52;6.40;;;4.30;;
15673;SDS011;7937;48.090;16.212;2023-05-07T15:05:55;4.87;;;4.30;;
15673;SDS011;7937;48.090;16.212;2023-05-07T15:08:57;5.40;;;4.70;;
15673;SDS011;7937;48.090;16.212;2023-05-07T15:11:59;6.00;;;5.07;;
15673;SDS011;7937;48.090;16.212;2023-05-07T15:15:02;4.60;;;4.20;;
15673;SDS011;7937;48.090;16.212;2023-05-07T15:18:04;4.90;;;4.33;;
15673;SDS011;7937;48.090;16.212;2023-05-07T15:21:06;4.53;;;3.90;;
15673;SDS011;7937;48.090;16.212;2023-05-07T15:24:10;5.97;;;4.47;;
15673;SDS011;7937;48.090;16.212;2023-05-07T15:27:12;5.53;;;4.57;;
15673;SDS011;7937;48.090;16.212;2023-05-07T15:30:16;3.57;;;3.10;;
15673;SDS011;7937;48.090;16.212;2023-05-07T15:33:19;5.00;;;3.17;;
15673;SDS011;7937;48.090;16.212;2023-05-07T15:36:21;5.23;;;3.63;;
15673;SDS011;7937;48.090;16.212;2023-05-07T15:39:24;3.90;;;3.10;;
15673;SDS011;7937;48.090;16.212;2023-05-07T15:42:27;4.13;;;3.60;;
15673;SDS011;7937;48.090;16.212;2023-05-07T15:45:29;3.93;;;3.57;;
15673;SDS011;7937;48.090;16.212;2023-05-07T15:48:31;4.70;;;3.93;;
15673;SDS011;7937;48.090;16.212;2023-05-07T15:51:34;4.47;;;3.67;;
15673;SDS011;7937;48.090;16.212;2023-05-07T15:54:37;3.83;;;3.40;;
15673;SDS011;7937;48.090;16.212;2023-05-07T15:57:39;3.57;;;3.27;;
15673;SDS011;7937;48.090;16.212;2023-05-07T16:00:41;4.03;;;2.93;;
15673;SDS011;7937;48.090;16.212;2023-05-07T16:03:44;3.37;;;3.07;;
15673;SDS011;7937;48.090;16.212;2023-05-07T16:06:46;3.37;;;3.07;;
15673;SDS011;7937;48.090;16.212;2023-05-07T16:09:48;3.87;;;3.07;;
15673;SDS011;7937;48.090;16.212;2023-05-07T16:12:50;3.63;;;3.20;;
15673;SDS011;7937;48.090;16.212;2023-05-07T16:15:55;3.30;;;3.00;;
15673;SDS011;7937;48.090;16.212;2023-05-07T16:18:59;2.90;;;2.70;;
15673;SDS011;7937;48.090;16.212;2023-05-07T16:22:01;3.93;;;3.07;;
15673;SDS011;7937;48.090;16.212;2023-05-07T16:25:03;3.50;;;3.20;;
15673;SDS011;7937;48.090;16.212;2023-05-07T16:28:06;4.13;;;3.00;;
15673;SDS011;7937;48.090;16.212;2023-05-07T16:31:08;4.80;;;3.47;;
15673;SDS011;7937;48.090;16.212;2023-05-07T16:34:11;3.27;;;2.97;;
15673;SDS011;7937;48.090;16.212;2023-05-07T16:37:14;3.53;;;3.23;;
15673;SDS011;7937;48.090;16.212;2023-05-07T16:40:16;3.07;;;2.77;;
15673;SDS011;7937;48.090;16.212;2023-05-07T16:43:18;3.73;;;3.00;;
15673;SDS011;7937;48.090;16.212;2023-05-07T16:46:20;3.30;;;2.70;;
15673;SDS011;7937;48.090;16.212;2023-05-07T16:49:23;4.13;;;3.30;;
15673;SDS011;7937;48.090;16.212;2023-05-07T16:52:25;3.70;;;2.73;;
15673;SDS011;7937;48.090;16.212;2023-05-07T16:55:28;5.07;;;3.13;;
15673;SDS011;7937;48.090;16.212;2023-05-07T16:58:38;3.13;;;2.83;;
15673;SDS011;7937;48.090;16.212;2023-05-07T17:01:40;4.83;;;2.97;;
15673;SDS011;7937;48.090;16.212;2023-05-07T17:04:43;3.20;;;2.90;;
15673;SDS011;7937;48.090;16.212;2023-05-07T17:07:45;5.73;;;3.47;;
15673;SDS011;7937;48.090;16.212;2023-05-07T17:10:47;4.37;;;3.47;;
15673;SDS011;7937;48.090;16.212;2023-05-07T17:13:49;3.47;;;3.17;;
15673;SDS011;7937;48.090;16.212;2023-05-07T17:16:53;3.70;;;3.40;;
15673;SDS011;7937;48.090;16.212;2023-05-07T17:19:55;4.50;;;4.10;;
15673;SDS011;7937;48.090;16.212;2023-05-07T17:22:57;4.07;;;3.67;;
15673;SDS011;7937;48.090;16.212;2023-05-07T17:25:59;6.50;;;3.70;;
15673;SDS011;7937;48.090;16.212;2023-05-07T17:29:02;5.23;;;4.40;;
15673;SDS011;7937;48.090;16.212;2023-05-07T17:32:04;5.00;;;4.60;;
15673;SDS011;7937;48.090;16.212;2023-05-07T17:35:09;4.30;;;3.90;;
15673;SDS011;7937;48.090;16.212;2023-05-07T17:38:11;4.63;;;4.13;;
15673;SDS011;7937;48.090;16.212;2023-05-07T17:41:13;4.60;;;4.17;;
15673;SDS011;7937;48.090;16.212;2023-05-07T17:44:15;5.07;;;4.57;;
15673;SDS011;7937;48.090;16.212;2023-05-07T17:47:18;4.70;;;4.23;;
15673;SDS011;7937;48.090;16.212;2023-05-07T17:50:20;5.17;;;4.67;;
15673;SDS011;7937;48.090;16.212;2023-05-07T17:53:23;4.73;;;4.30;;
15673;SDS011;7937;48.090;16.212;2023-05-07T17:56:25;6.23;;;4.20;;
15673;SDS011;7937;48.090;16.212;2023-05-07T17:59:27;6.37;;;4.57;;
15673;SDS011;7937;48.090;16.212;2023-05-07T18:02:29;5.47;;;4.90;;
15673;SDS011;7937;48.090;16.212;2023-05-07T18:05:34;4.90;;;4.50;;
15673;SDS011;7937;48.090;16.212;2023-05-07T18:08:37;5.93;;;5.03;;
15673;SDS011;7937;48.090;16.212;2023-05-07T18:11:39;5.00;;;4.50;;
15673;SDS011;7937;48.090;16.212;2023-05-07T18:14:41;6.83;;;3.97;;
15673;SDS011;7937;48.090;16.212;2023-05-07T18:17:43;4.67;;;4.27;;
15673;SDS011;7937;48.090;16.212;2023-05-07T18:20:49;5.17;;;4.43;;
15673;SDS011;7937;48.090;16.212;2023-05-07T18:23:54;7.00;;;4.77;;
15673;SDS011;7937;48.090;16.212;2023-05-07T18:26:56;6.90;;;5.10;;
15673;SDS011;7937;48.090;16.212;2023-05-07T18:29:58;4.77;;;4.37;;
15673;SDS011;7937;48.090;16.212;2023-05-07T18:33:00;4.57;;;4.17;;
15673;SDS011;7937;48.090;16.212;2023-05-07T18:36:03;4.47;;;4.07;;